createdAt,value
2016-04-11T00:00:20.818Z,21.66
2016-04-11T00:01:20.820Z,21.64
2016-04-11T00:02:20.823Z,21.59
2016-04-11T00:03:20.826Z,21.58
2016-04-11T00:04:20.844Z,21.64
2016-04-11T00:05:20.831Z,21.55
2016-04-11T00:06:20.833Z,21.55
2016-04-11T00:07:20.853Z,21.56
2016-04-11T00:08:20.855Z,21.61
2016-04-11T00:09:20.873Z,21.64
2016-04-11T00:10:20.861Z,21.59
2016-04-11T00:11:20.864Z,21.62
2016-04-11T00:12:20.881Z,21.58
2016-04-11T00:13:20.883Z,21.64
2016-04-11T00:14:20.902Z,21.59
2016-04-11T00:15:20.890Z,21.58
2016-04-11T00:16:20.893Z,21.61
2016-04-11T00:17:20.895Z,21.59
2016-04-11T00:18:20.898Z,21.56
2016-04-11T00:19:20.761Z,21.48
2016-04-11T00:20:20.920Z,21.52
2016-04-11T00:21:20.922Z,21.55
2016-04-11T00:22:20.940Z,21.53
2016-04-11T00:23:20.928Z,21.55
2016-04-11T00:24:20.945Z,21.61
2016-04-11T00:25:20.948Z,21.51
2016-04-11T00:26:20.950Z,21.53
2016-04-11T00:27:20.953Z,21.48
2016-04-11T00:28:20.956Z,21.52
2016-04-11T00:29:20.975Z,21.45
2016-04-11T00:30:20.961Z,21.48
2016-04-11T00:31:20.980Z,21.48
2016-04-11T00:32:20.983Z,21.48
2016-04-11T00:33:21.010Z,21.58
2016-04-11T00:34:21.020Z,21.49
2016-04-11T00:35:21.326Z,21.51
2016-04-11T00:36:20.686Z,21.52
2016-04-11T00:37:20.986Z,21.49
2016-04-11T00:38:21.005Z,21.49
2016-04-11T00:39:20.992Z,21.48
2016-04-11T00:40:21.010Z,21.56
2016-04-11T00:41:21.013Z,21.55
2016-04-11T00:42:21.156Z,21.46
2016-04-11T00:43:21.018Z,21.46
2016-04-11T00:44:21.021Z,21.52
2016-04-11T00:45:21.040Z,21.51
2016-04-11T00:46:21.042Z,21.46
2016-04-11T00:47:21.045Z,21.51
2016-04-11T00:48:21.063Z,21.43
2016-04-11T00:49:21.051Z,21.53
2016-04-11T00:50:21.068Z,21.45
2016-04-11T00:51:21.056Z,21.46
2016-04-11T00:52:21.059Z,21.48
2016-04-11T00:53:21.093Z,21.4
2016-04-11T00:54:21.095Z,21.48
2016-04-11T00:55:21.098Z,21.51
2016-04-11T00:56:21.084Z,21.45
2016-04-11T00:57:21.087Z,21.46
2016-04-11T00:58:21.106Z,21.52
2016-04-11T00:59:21.108Z,21.51
2016-04-11T01:00:21.111Z,21.46
2016-04-11T01:01:21.114Z,21.41
2016-04-11T01:02:21.116Z,21.48
2016-04-11T01:03:21.134Z,21.49
2016-04-11T01:04:21.136Z,21.49
2016-04-11T01:05:21.139Z,21.45
2016-04-11T01:06:21.142Z,21.48
2016-04-11T01:07:21.145Z,21.46
2016-04-11T01:08:21.164Z,21.43
2016-04-11T01:09:21.167Z,21.49
2016-04-11T01:10:21.158Z,21.46
2016-04-11T01:11:21.161Z,21.45
2016-04-11T01:12:21.163Z,21.46
2016-04-11T01:13:21.166Z,21.43
2016-04-11T01:14:21.185Z,21.45
2016-04-11T01:15:21.187Z,21.43
2016-04-11T01:16:21.191Z,21.4
2016-04-11T01:17:21.193Z,21.43
2016-04-11T01:18:21.212Z,21.46
2016-04-11T01:19:21.214Z,21.37
2016-04-11T01:20:21.217Z,21.46
2016-04-11T01:21:21.220Z,21.45
2016-04-11T01:22:21.222Z,21.41
2016-04-11T01:23:21.240Z,21.49
2016-04-11T01:24:21.227Z,21.41
2016-04-11T01:25:21.230Z,21.41
2016-04-11T01:26:21.248Z,21.46
2016-04-11T01:27:21.251Z,21.43
2016-04-11T01:28:21.253Z,21.34
2016-04-11T01:29:21.256Z,21.36
2016-04-11T01:30:21.259Z,21.46
2016-04-11T01:31:21.261Z,21.34
2016-04-11T01:32:21.264Z,21.4
2016-04-11T01:33:21.283Z,21.45
2016-04-11T01:34:21.301Z,21.34
2016-04-11T01:35:21.319Z,21.34
2016-04-11T01:36:21.291Z,21.4
2016-04-11T01:37:21.293Z,21.45
2016-04-11T01:38:21.296Z,21.36
2016-04-11T01:39:21.299Z,21.37
2016-04-11T01:40:21.316Z,21.34
2016-04-11T01:41:21.320Z,21.37
2016-04-11T01:42:21.322Z,21.36
2016-04-11T01:43:21.325Z,21.36
2016-04-11T01:44:21.327Z,21.36
2016-04-11T01:45:21.346Z,21.37
2016-04-11T01:46:21.333Z,21.37
2016-04-11T01:47:21.352Z,21.33
2016-04-11T01:48:21.354Z,21.37
2016-04-11T01:49:21.357Z,21.37
2016-04-11T01:50:21.375Z,21.36
2016-04-11T01:51:21.378Z,21.34
2016-04-11T01:52:21.365Z,21.34
2016-04-11T01:53:21.399Z,21.37
2016-04-11T01:54:21.387Z,21.31
2016-04-11T01:55:21.389Z,21.33
2016-04-11T01:56:21.407Z,21.36
2016-04-11T01:57:21.456Z,21.38
2016-04-11T01:58:21.412Z,21.34
2016-04-11T01:59:21.415Z,21.37
2016-04-11T02:00:21.417Z,21.37
2016-04-11T02:01:21.420Z,21.31
2016-04-11T02:02:21.422Z,21.38
2016-04-11T02:03:21.425Z,21.36
2016-04-11T02:04:21.444Z,21.36
2016-04-11T02:05:21.431Z,21.34
2016-04-11T02:06:21.433Z,21.34
2016-04-11T02:07:21.437Z,21.34
2016-04-11T02:08:21.455Z,21.37
2016-04-11T02:09:21.458Z,21.25
2016-04-11T02:10:21.460Z,21.25
2016-04-11T02:11:21.463Z,21.33
2016-04-11T02:12:21.513Z,21.36
2016-04-11T02:13:21.468Z,21.33
2016-04-11T02:14:21.471Z,21.34
2016-04-11T02:15:21.473Z,21.33
2016-04-11T02:16:21.493Z,21.25
2016-04-11T02:17:21.510Z,21.25
2016-04-11T02:18:21.498Z,21.33
2016-04-11T02:19:21.500Z,21.33
2016-04-11T02:20:21.519Z,21.23
2016-04-11T02:21:21.521Z,21.3
2016-04-11T02:22:21.523Z,21.3
2016-04-11T02:23:21.526Z,21.34
2016-04-11T02:24:21.529Z,21.33
2016-04-11T02:25:21.548Z,21.23
2016-04-11T02:26:21.534Z,21.25
2016-04-11T02:27:21.584Z,21.28
2016-04-11T02:28:21.555Z,21.25
2016-04-11T02:29:21.558Z,21.3
2016-04-11T02:30:21.576Z,21.28
2016-04-11T02:31:21.564Z,21.28
2016-04-11T02:32:21.566Z,21.23
2016-04-11T02:33:21.585Z,21.23
2016-04-11T02:34:21.587Z,21.33
2016-04-11T02:35:21.590Z,21.3
2016-04-11T02:36:21.592Z,21.27
2016-04-11T02:37:21.595Z,21.33
2016-04-11T02:38:21.598Z,21.31
2016-04-11T02:39:21.633Z,21.28
2016-04-11T02:40:21.619Z,21.3
2016-04-11T02:41:21.622Z,21.45
2016-04-11T02:42:21.671Z,21.28
2016-04-11T02:43:21.627Z,21.34
2016-04-11T02:44:21.645Z,21.31
2016-04-11T02:45:21.632Z,21.3
2016-04-11T02:46:21.635Z,21.25
2016-04-11T02:47:21.638Z,21.19
2016-04-11T02:48:21.657Z,21.22
2016-04-11T02:49:21.659Z,21.23
2016-04-11T02:50:21.661Z,21.31
2016-04-11T02:51:21.664Z,21.23
2016-04-11T02:52:21.510Z,21.25
2016-04-11T02:53:21.670Z,21.33
2016-04-11T02:54:21.672Z,21.23
2016-04-11T02:55:21.690Z,21.23
2016-04-11T02:56:21.677Z,21.31
2016-04-11T02:57:21.931Z,21.37
2016-04-11T02:58:21.698Z,21.33
2016-04-11T02:59:21.701Z,21.31
2016-04-11T03:00:21.704Z,21.25
2016-04-11T03:01:21.723Z,21.16
2016-04-11T03:02:21.709Z,21.33
2016-04-11T03:03:21.727Z,21.25
2016-04-11T03:04:21.730Z,21.31
2016-04-11T03:05:21.749Z,21.31
2016-04-11T03:06:21.736Z,21.3
2016-04-11T03:07:21.738Z,21.31
2016-04-11T03:08:21.741Z,21.27
2016-04-11T03:09:21.743Z,21.36
2016-04-11T03:10:21.762Z,21.3
2016-04-11T03:11:21.765Z,21.3
2016-04-11T03:12:21.893Z,21.31
2016-04-11T03:13:21.770Z,21.31
2016-04-11T03:14:21.774Z,21.3
2016-04-11T03:15:21.776Z,21.25
2016-04-11T03:16:21.779Z,21.31
2016-04-11T03:17:21.796Z,21.3
2016-04-11T03:18:21.799Z,21.33
2016-04-11T03:19:21.802Z,21.31
2016-04-11T03:20:21.820Z,21.3
2016-04-11T03:21:21.823Z,21.25
2016-04-11T03:22:21.810Z,21.3
2016-04-11T03:23:21.828Z,21.27
2016-04-11T03:24:21.815Z,21.3
2016-04-11T03:25:21.834Z,21.23
2016-04-11T03:26:21.836Z,21.22
2016-04-11T03:27:21.948Z,21.25
2016-04-11T03:28:21.842Z,21.3
2016-04-11T03:29:21.845Z,21.19
2016-04-11T03:30:21.847Z,21.23
2016-04-11T03:31:21.865Z,21.3
2016-04-11T03:32:21.867Z,21.21
2016-04-11T03:33:21.870Z,21.21
2016-04-11T03:34:21.889Z,21.22
2016-04-11T03:35:21.876Z,21.27
2016-04-11T03:36:21.894Z,21.16
2016-04-11T03:37:21.913Z,21.16
2016-04-11T03:38:21.899Z,21.18
2016-04-11T03:39:21.919Z,21.18
2016-04-11T03:40:21.889Z,21.16
2016-04-11T03:41:21.892Z,21.21
2016-04-11T03:42:21.989Z,21.19
2016-04-11T03:43:21.930Z,21.21
2016-04-11T03:44:21.916Z,21.27
2016-04-11T03:45:21.919Z,21.16
2016-04-11T03:46:21.937Z,21.16
2016-04-11T03:47:21.924Z,21.23
2016-04-11T03:48:21.927Z,21.19
2016-04-11T03:49:21.946Z,21.19
2016-04-11T03:50:21.948Z,21.22
2016-04-11T03:51:21.966Z,21.19
2016-04-11T03:52:21.812Z,21.18
2016-04-11T03:53:21.956Z,21.16
2016-04-11T03:54:21.974Z,21.23
2016-04-11T03:55:21.976Z,21.19
2016-04-11T03:56:21.979Z,21.18
2016-04-11T03:57:21.873Z,21.21
2016-04-11T03:58:22.001Z,21.22
2016-04-11T03:59:22.003Z,21.21
2016-04-11T04:00:21.990Z,21.18
2016-04-11T04:01:21.992Z,21.22
2016-04-11T04:02:22.012Z,21.16
2016-04-11T04:03:22.014Z,21.22
2016-04-11T04:04:22.017Z,21.18
2016-04-11T04:05:22.019Z,21.16
2016-04-11T04:06:22.038Z,21.16
2016-04-11T04:07:22.024Z,21.18
2016-04-11T04:08:22.044Z,21.18
2016-04-11T04:09:22.046Z,21.18
2016-04-11T04:10:22.049Z,21.19
2016-04-11T04:11:22.066Z,21.18
2016-04-11T04:12:22.101Z,21.23
2016-04-11T04:13:22.057Z,21.19
2016-04-11T04:14:22.075Z,21.19
2016-04-11T04:15:22.077Z,21.23
2016-04-11T04:16:22.096Z,21.15
2016-04-11T04:17:22.083Z,21.21
2016-04-11T04:18:22.086Z,21.19
2016-04-11T04:19:22.088Z,21.19
2016-04-11T04:20:22.091Z,21.18
2016-04-11T04:21:22.109Z,21.16
2016-04-11T04:22:22.127Z,21.15
2016-04-11T04:23:22.115Z,21.18
2016-04-11T04:24:22.182Z,21.18
2016-04-11T04:25:22.197Z,21.18
2016-04-11T04:26:22.244Z,21.16
2016-04-11T04:27:22.352Z,21.21
2016-04-11T04:28:22.352Z,21.18
2016-04-11T04:29:22.377Z,21.18
2016-04-11T04:30:22.411Z,21.15
2016-04-11T04:31:22.413Z,21.09
2016-04-11T04:32:22.433Z,21.18
2016-04-11T04:33:22.483Z,21.16
2016-04-11T04:34:22.508Z,21.18
2016-04-11T04:35:22.485Z,21.16
2016-04-11T04:36:22.510Z,21.15
2016-04-11T04:37:22.519Z,21.18
2016-04-11T04:38:22.511Z,21.16
2016-04-11T04:39:22.533Z,21.19
2016-04-11T04:40:22.505Z,21.22
2016-04-11T04:41:22.542Z,21.22
2016-04-11T04:42:22.578Z,21.19
2016-04-11T04:43:22.551Z,21.15
2016-04-11T04:44:22.555Z,21.18
2016-04-11T04:45:22.558Z,21.18
2016-04-11T04:46:22.561Z,21.16
2016-04-11T04:47:22.565Z,21.13
2016-04-11T04:48:22.569Z,21.19
2016-04-11T04:49:22.587Z,21.21
2016-04-11T04:50:22.575Z,21.15
2016-04-11T04:51:22.593Z,21.22
2016-04-11T04:52:22.581Z,21.19
2016-04-11T04:53:22.615Z,21.18
2016-04-11T04:54:22.602Z,21.16
2016-04-11T04:55:22.604Z,21.16
2016-04-11T04:56:22.623Z,21.19
2016-04-11T04:57:22.626Z,21.22
2016-04-11T04:58:22.629Z,21.19
2016-04-11T04:59:22.615Z,21.19
2016-04-11T05:00:22.634Z,21.19
2016-04-11T05:01:22.636Z,21.19
2016-04-11T05:02:22.640Z,21.15
2016-04-11T05:03:22.642Z,21.22
2016-04-11T05:04:22.645Z,21.22
2016-04-11T05:05:22.664Z,21.21
2016-04-11T05:06:22.650Z,21.22
2016-04-11T05:07:22.669Z,21.19
2016-04-11T05:08:22.671Z,21.16
2016-04-11T05:09:22.689Z,21.15
2016-04-11T05:10:22.692Z,21.21
2016-04-11T05:11:22.680Z,21.16
2016-04-11T05:12:22.682Z,21.19
2016-04-11T05:13:22.685Z,21.21
2016-04-11T05:14:22.702Z,21.15
2016-04-11T05:15:22.533Z,21.22
2016-04-11T05:16:22.708Z,21.22
2016-04-11T05:17:22.711Z,21.19
2016-04-11T05:18:22.713Z,21.18
2016-04-11T05:19:22.732Z,21.23
2016-04-11T05:20:22.719Z,21.15
2016-04-11T05:21:22.737Z,21.22
2016-04-11T05:22:22.740Z,21.16
2016-04-11T05:23:22.727Z,21.18
2016-04-11T05:24:22.760Z,21.16
2016-04-11T05:25:22.795Z,21.19
2016-04-11T05:26:22.751Z,21.16
2016-04-11T05:27:22.769Z,21.15
2016-04-11T05:28:22.772Z,21.18
2016-04-11T05:29:22.774Z,21.16
2016-04-11T05:30:22.777Z,21.19
2016-04-11T05:31:22.779Z,21.21
2016-04-11T05:32:22.782Z,21.19
2016-04-11T05:33:22.801Z,21.16
2016-04-11T05:34:22.787Z,21.18
2016-04-11T05:35:22.806Z,21.19
2016-04-11T05:36:22.809Z,21.19
2016-04-11T05:37:22.811Z,21.21
2016-04-11T05:38:22.814Z,21.18
2016-04-11T05:39:22.817Z,21.19
2016-04-11T05:40:22.819Z,21.19
2016-04-11T05:41:22.838Z,21.19
2016-04-11T05:42:22.842Z,21.18
2016-04-11T05:43:22.844Z,21.21
2016-04-11T05:44:22.847Z,21.19
2016-04-11T05:45:22.864Z,21.18
2016-04-11T05:46:22.852Z,21.19
2016-04-11T05:47:22.855Z,21.23
2016-04-11T05:48:22.857Z,21.21
2016-04-11T05:49:22.875Z,21.19
2016-04-11T05:50:22.877Z,21.25
2016-04-11T05:51:22.880Z,21.23
2016-04-11T05:52:22.899Z,21.22
2016-04-11T05:53:22.902Z,21.19
2016-04-11T05:54:22.904Z,21.27
2016-04-11T05:55:22.891Z,21.21
2016-04-11T05:56:22.910Z,21.23
2016-04-11T05:57:22.913Z,21.16
2016-04-11T05:58:22.915Z,21.23
2016-04-11T05:59:22.918Z,21.27
2016-04-11T06:00:22.937Z,21.23
2016-04-11T06:01:22.923Z,21.16
2016-04-11T06:02:22.942Z,21.22
2016-04-11T06:03:22.928Z,21.15
2016-04-11T06:04:22.947Z,21.28
2016-04-11T06:05:22.965Z,21.27
2016-04-11T06:06:22.953Z,21.25
2016-04-11T06:07:22.955Z,21.33
2016-04-11T06:08:22.959Z,21.25
2016-04-11T06:09:22.975Z,21.28
2016-04-11T06:10:22.978Z,21.31
2016-04-11T06:11:22.981Z,21.28
2016-04-11T06:12:22.984Z,21.19
2016-04-11T06:13:22.986Z,21.34
2016-04-11T06:14:22.974Z,21.3
2016-04-11T06:15:22.992Z,21.28
2016-04-11T06:16:23.011Z,21.3
2016-04-11T06:17:22.998Z,21.3
2016-04-11T06:18:23.016Z,21.27
2016-04-11T06:19:23.033Z,21.3
2016-04-11T06:20:23.022Z,21.28
2016-04-11T06:21:23.024Z,21.3
2016-04-11T06:22:23.026Z,21.28
2016-04-11T06:23:23.045Z,21.21
2016-04-11T06:24:23.047Z,21.28
2016-04-11T06:25:23.035Z,21.22
2016-04-11T06:26:23.053Z,21.36
2016-04-11T06:27:23.040Z,21.23
2016-04-11T06:28:23.058Z,21.31
2016-04-11T06:29:23.061Z,21.28
2016-04-11T06:30:23.079Z,21.41
2016-04-11T06:31:23.082Z,21.33
2016-04-11T06:32:23.069Z,21.36
2016-04-11T06:33:23.088Z,21.33
2016-04-11T06:34:23.090Z,21.33
2016-04-11T06:35:23.092Z,21.28
2016-04-11T06:36:23.096Z,21.3
2016-04-11T06:37:23.098Z,21.28
2016-04-11T06:38:23.100Z,21.27
2016-04-11T06:39:23.120Z,21.36
2016-04-11T06:40:23.106Z,21.3
2016-04-11T06:41:23.125Z,21.34
2016-04-11T06:42:23.112Z,21.27
2016-04-11T06:43:23.130Z,21.28
2016-04-11T06:44:23.148Z,21.28
2016-04-11T06:45:23.151Z,21.27
2016-04-11T06:46:23.138Z,21.27
2016-04-11T06:47:23.156Z,21.33
2016-04-11T06:48:23.003Z,21.27
2016-04-11T06:49:23.162Z,21.28
2016-04-11T06:50:23.164Z,21.23
2016-04-11T06:51:23.166Z,21.27
2016-04-11T06:52:23.170Z,21.33
2016-04-11T06:53:23.172Z,21.34
2016-04-11T06:54:23.174Z,21.37
2016-04-11T06:55:23.194Z,21.36
2016-04-11T06:56:23.196Z,21.36
2016-04-11T06:57:23.199Z,21.4
2016-04-11T06:58:23.202Z,21.34
2016-04-11T06:59:23.204Z,21.34
2016-04-11T07:00:23.207Z,21.36
2016-04-11T07:01:23.225Z,21.33
2016-04-11T07:02:23.228Z,21.43
2016-04-11T07:03:23.246Z,21.36
2016-04-11T07:04:23.234Z,21.37
2016-04-11T07:05:23.237Z,21.34
2016-04-11T07:06:23.239Z,21.37
2016-04-11T07:07:23.242Z,21.45
2016-04-11T07:08:23.260Z,21.38
2016-04-11T07:09:23.247Z,21.36
2016-04-11T07:10:23.265Z,21.33
2016-04-11T07:11:23.267Z,21.37
2016-04-11T07:12:23.286Z,21.41
2016-04-11T07:13:23.273Z,21.45
2016-04-11T07:14:23.291Z,21.48
2016-04-11T07:15:23.294Z,21.48
2016-04-11T07:16:23.281Z,21.46
2016-04-11T07:17:23.300Z,21.37
2016-04-11T07:18:23.303Z,21.45
2016-04-11T07:19:23.305Z,21.51
2016-04-11T07:20:23.323Z,21.43
2016-04-11T07:21:23.310Z,21.46
2016-04-11T07:22:23.328Z,21.4
2016-04-11T07:23:23.331Z,21.41
2016-04-11T07:24:23.349Z,21.53
2016-04-11T07:25:23.338Z,21.51
2016-04-11T07:26:23.341Z,21.49
2016-04-11T07:27:23.344Z,21.52
2016-04-11T07:28:23.346Z,21.43
2016-04-11T07:29:23.365Z,21.58
2016-04-11T07:30:23.367Z,21.53
2016-04-11T07:31:23.354Z,21.52
2016-04-11T07:32:23.374Z,21.55
2016-04-11T07:33:23.376Z,21.53
2016-04-11T07:34:23.378Z,21.58
2016-04-11T07:35:23.381Z,20.94
2016-04-11T07:36:23.384Z,20.22
2016-04-11T07:37:23.433Z,20.51
2016-04-11T07:38:23.405Z,20.26
2016-04-11T07:39:23.408Z,20.29
2016-04-11T07:40:23.411Z,20.53
2016-04-11T07:41:23.413Z,20.78
2016-04-11T07:42:23.416Z,20.96
2016-04-11T07:43:23.434Z,21.08
2016-04-11T07:44:23.421Z,21.18
2016-04-11T07:45:23.424Z,21.3
2016-04-11T07:46:23.442Z,21.27
2016-04-11T07:47:23.444Z,21.27
2016-04-11T07:48:23.464Z,21.43
2016-04-11T07:49:23.450Z,21.48
2016-04-11T07:50:23.453Z,21.46
2016-04-11T07:51:23.455Z,21.46
2016-04-11T07:52:23.488Z,21.51
2016-04-11T07:53:23.477Z,21.53
2016-04-11T07:54:23.463Z,21.61
2016-04-11T07:55:23.482Z,21.53
2016-04-11T07:56:23.485Z,21.66
2016-04-11T07:57:23.487Z,21.64
2016-04-11T07:58:23.490Z,21.64
2016-04-11T07:59:23.508Z,21.64
2016-04-11T08:00:23.510Z,21.77
2016-04-11T08:01:23.513Z,21.77
2016-04-11T08:02:23.516Z,21.76
2016-04-11T08:03:23.551Z,21.78
2016-04-11T08:04:23.521Z,21.78
2016-04-11T08:05:23.524Z,21.83
2016-04-11T08:06:23.526Z,21.83
2016-04-11T08:07:23.529Z,21.83
2016-04-11T08:08:23.392Z,21.92
2016-04-11T08:09:23.555Z,21.9
2016-04-11T08:10:23.559Z,21.9
2016-04-11T08:11:23.561Z,21.89
2016-04-11T08:12:23.563Z,21.94
2016-04-11T08:13:23.769Z,21.94
2016-04-11T08:14:23.585Z,21.93
2016-04-11T08:15:23.572Z,21.93
2016-04-11T08:16:23.590Z,22.02
2016-04-11T08:17:23.593Z,21.94
2016-04-11T08:18:23.600Z,21.93
2016-04-11T08:19:23.587Z,22.02
2016-04-11T08:20:23.606Z,22.04
2016-04-11T08:21:23.608Z,22.04
2016-04-11T08:22:23.626Z,22.07
2016-04-11T08:23:23.629Z,22.11
2016-04-11T08:24:23.631Z,22.05
2016-04-11T08:25:23.635Z,22.09
2016-04-11T08:26:23.653Z,22.07
2016-04-11T08:27:23.640Z,22.09
2016-04-11T08:28:23.831Z,22.14
2016-04-11T08:29:23.645Z,22.16
2016-04-11T08:30:23.648Z,22.22
2016-04-11T08:31:23.651Z,22.18
2016-04-11T08:32:23.670Z,22.23
2016-04-11T08:33:23.672Z,22.18
2016-04-11T08:34:23.675Z,22.11
2016-04-11T08:35:23.693Z,22.15
2016-04-11T08:36:23.695Z,22.22
2016-04-11T08:37:23.683Z,22.23
2016-04-11T08:38:23.686Z,22.24
2016-04-11T08:39:23.719Z,22.26
2016-04-11T08:40:23.706Z,22.2
2016-04-11T08:41:23.725Z,22.31
2016-04-11T08:42:23.727Z,22.31
2016-04-11T08:43:23.730Z,22.41
2016-04-11T08:44:23.733Z,22.44
2016-04-11T08:45:23.735Z,22.38
2016-04-11T08:46:23.738Z,22.36
2016-04-11T08:47:23.757Z,22.36
2016-04-11T08:48:23.774Z,22.39
2016-04-11T08:49:23.762Z,22.38
2016-04-11T08:50:23.780Z,22.36
2016-04-11T08:51:23.752Z,22.41
2016-04-11T08:52:23.770Z,22.42
2016-04-11T08:53:23.787Z,22.38
2016-04-11T08:54:23.776Z,22.45
2016-04-11T08:55:23.793Z,22.44
2016-04-11T08:56:23.796Z,22.48
2016-04-11T08:57:23.798Z,22.54
2016-04-11T08:58:23.739Z,22.46
2016-04-11T08:59:23.804Z,22.48
2016-04-11T09:00:23.822Z,22.55
2016-04-11T09:01:23.810Z,22.55
2016-04-11T09:02:23.828Z,22.57
2016-04-11T09:03:23.831Z,22.55
2016-04-11T09:04:23.848Z,22.67
2016-04-11T09:05:24.336Z,22.64
2016-04-11T09:06:23.854Z,22.61
2016-04-11T09:07:23.856Z,22.54
2016-04-11T09:08:23.891Z,22.55
2016-04-11T09:09:23.878Z,22.54
2016-04-11T09:10:23.881Z,22.69
2016-04-11T09:11:23.867Z,22.7
2016-04-11T09:12:23.886Z,22.73
2016-04-11T09:13:23.936Z,22.73
2016-04-11T09:14:23.891Z,22.71
2016-04-11T09:15:23.910Z,22.7
2016-04-11T09:16:23.897Z,22.76
2016-04-11T09:17:23.946Z,22.71
2016-04-11T09:18:23.918Z,22.79
2016-04-11T09:19:23.921Z,22.76
2016-04-11T09:20:23.938Z,22.75
2016-04-11T09:21:23.941Z,22.85
2016-04-11T09:22:23.944Z,22.88
2016-04-11T09:23:23.963Z,22.86
2016-04-11T09:24:23.965Z,22.81
2016-04-11T09:25:23.952Z,22.86
2016-04-11T09:26:24.002Z,22.79
2016-04-11T09:27:23.973Z,22.92
2016-04-11T09:28:23.913Z,22.82
2016-04-11T09:29:24.010Z,22.91
2016-04-11T09:30:23.998Z,22.94
2016-04-11T09:31:24.000Z,22.92
2016-04-11T09:32:24.003Z,22.91
2016-04-11T09:33:24.020Z,23.04
2016-04-11T09:34:24.054Z,22.99
2016-04-11T09:35:24.042Z,22.94
2016-04-11T09:36:24.029Z,23.01
2016-04-11T09:37:24.031Z,22.94
2016-04-11T09:38:24.050Z,23
2016-04-11T09:39:24.053Z,23.07
2016-04-11T09:40:24.055Z,23.04
2016-04-11T09:41:24.058Z,23.01
2016-04-11T09:42:24.060Z,23.04
2016-04-11T09:43:24.204Z,23.06
2016-04-11T09:44:24.081Z,23.09
2016-04-11T09:45:24.099Z,23.14
2016-04-11T09:46:24.102Z,23.1
2016-04-11T09:47:24.089Z,23.1
2016-04-11T09:48:24.092Z,23.1
2016-04-11T09:49:24.111Z,23.16
2016-04-11T09:50:24.113Z,23.16
2016-04-11T09:51:24.132Z,23.22
2016-04-11T09:52:24.119Z,23.19
2016-04-11T09:53:24.137Z,23.19
2016-04-11T09:54:24.140Z,23.22
2016-04-11T09:55:24.173Z,23.28
2016-04-11T09:56:24.005Z,23.28
2016-04-11T09:57:24.163Z,23.26
2016-04-11T09:58:24.165Z,23.26
2016-04-11T09:59:24.168Z,23.35
2016-04-11T10:00:24.171Z,23.34
2016-04-11T10:01:24.190Z,23.38
2016-04-11T10:02:24.192Z,23.34
2016-04-11T10:03:24.195Z,23.41
2016-04-11T10:04:24.181Z,23.42
2016-04-11T10:05:24.201Z,23.32
2016-04-11T10:06:24.203Z,23.42
2016-04-11T10:07:24.222Z,23.4
2016-04-11T10:08:24.208Z,23.42
2016-04-11T10:09:24.243Z,23.56
2016-04-11T10:10:24.230Z,23.47
2016-04-11T10:11:24.248Z,23.53
2016-04-11T10:12:24.235Z,23.5
2016-04-11T10:13:24.331Z,23.53
2016-04-11T10:14:24.255Z,23.56
2016-04-11T10:15:24.258Z,23.56
2016-04-11T10:16:24.277Z,23.62
2016-04-11T10:17:24.294Z,23.52
2016-04-11T10:18:24.282Z,23.62
2016-04-11T10:19:24.285Z,23.59
2016-04-11T10:20:24.288Z,23.63
2016-04-11T10:21:24.305Z,23.64
2016-04-11T10:22:24.308Z,23.7
2016-04-11T10:23:24.343Z,23.74
2016-04-11T10:24:24.313Z,23.72
2016-04-11T10:25:24.332Z,23.75
2016-04-11T10:26:24.491Z,23.79
2016-04-11T10:27:24.353Z,23.79
2016-04-11T10:28:24.466Z,23.78
2016-04-11T10:29:24.359Z,23.89
2016-04-11T10:30:24.362Z,23.78
2016-04-11T10:31:24.364Z,23.78
2016-04-11T10:32:24.367Z,23.34
2016-04-11T10:33:24.370Z,22.92
2016-04-11T10:34:24.388Z,22.64
2016-04-11T10:35:24.390Z,22.42
2016-04-11T10:36:24.378Z,22.29
2016-04-11T10:37:24.380Z,22.36
2016-04-11T10:38:24.398Z,22.36
2016-04-11T10:39:24.401Z,22.39
2016-04-11T10:40:24.404Z,22.15
2016-04-11T10:41:24.406Z,22.09
2016-04-11T10:42:24.409Z,21.9
2016-04-11T10:43:24.428Z,22.02
2016-04-11T10:44:24.414Z,21.86
2016-04-11T10:45:24.433Z,21.66
2016-04-11T10:46:24.420Z,21.61
2016-04-11T10:47:24.422Z,21.51
2016-04-11T10:48:24.441Z,21.55
2016-04-11T10:49:24.428Z,21.83
2016-04-11T10:50:24.446Z,22.11
2016-04-11T10:51:24.449Z,22.14
2016-04-11T10:52:24.436Z,22.34
2016-04-11T10:53:24.439Z,22.52
2016-04-11T10:54:24.457Z,22.69
2016-04-11T10:55:24.444Z,22.75
2016-04-11T10:56:24.446Z,22.84
2016-04-11T10:57:24.466Z,22.88
2016-04-11T10:58:24.468Z,22.92
2016-04-11T10:59:24.471Z,22.96
2016-04-11T11:00:24.473Z,23.03
2016-04-11T11:01:24.476Z,23.03
2016-04-11T11:02:24.525Z,23.07
2016-04-11T11:03:24.498Z,23.14
2016-04-11T11:04:24.501Z,23.15
2016-04-11T11:05:24.893Z,23.18
2016-04-11T11:06:24.520Z,23.15
2016-04-11T11:07:24.508Z,23.22
2016-04-11T11:08:24.510Z,23.29
2016-04-11T11:09:24.529Z,23.21
2016-04-11T11:10:24.532Z,23.35
2016-04-11T11:11:24.534Z,23.37
2016-04-11T11:12:24.536Z,23.35
2016-04-11T11:13:24.556Z,23.42
2016-04-11T11:14:24.558Z,23.47
2016-04-11T11:15:24.561Z,23.52
2016-04-11T11:16:24.563Z,23.45
2016-04-11T11:17:24.582Z,23.56
2016-04-11T11:18:24.584Z,23.6
2016-04-11T11:19:24.586Z,23.53
2016-04-11T11:20:24.589Z,23.66
2016-04-11T11:21:24.592Z,23.66
2016-04-11T11:22:24.610Z,23.7
2016-04-11T11:23:24.613Z,23.75
2016-04-11T11:24:24.632Z,23.7
2016-04-11T11:25:24.619Z,23.77
2016-04-11T11:26:24.637Z,23.82
2016-04-11T11:27:24.640Z,23.84
2016-04-11T11:28:24.643Z,23.82
2016-04-11T11:29:24.646Z,23.85
2016-04-11T11:30:24.648Z,23.85
2016-04-11T11:31:24.651Z,23.96
2016-04-11T11:32:24.668Z,23.94
2016-04-11T11:33:24.671Z,23.87
2016-04-11T11:34:24.689Z,23.79
2016-04-11T11:35:24.692Z,23.78
2016-04-11T11:36:24.695Z,23.67
2016-04-11T11:37:24.698Z,23.7
2016-04-11T11:38:24.717Z,23.53
2016-04-11T11:39:24.703Z,23.41
2016-04-11T11:40:24.722Z,23.4
2016-04-11T11:41:24.725Z,23.34
2016-04-11T11:42:24.727Z,23.26
2016-04-11T11:43:24.730Z,23.24
2016-04-11T11:44:24.733Z,23.21
2016-04-11T11:45:24.751Z,23.16
2016-04-11T11:46:24.738Z,23.16
2016-04-11T11:47:24.772Z,23.03
2016-04-11T11:48:24.759Z,23.07
2016-04-11T11:49:24.761Z,23.07
2016-04-11T11:50:24.764Z,23.09
2016-04-11T11:51:24.766Z,23.1
2016-04-11T11:52:24.786Z,23.18
2016-04-11T11:53:24.788Z,23.24
2016-04-11T11:54:24.791Z,23.15
2016-04-11T11:55:24.793Z,23.12
2016-04-11T11:56:24.796Z,23.04
2016-04-11T11:57:24.814Z,22.94
2016-04-11T11:58:24.816Z,22.82
2016-04-11T11:59:24.804Z,22.85
2016-04-11T12:00:24.821Z,23.07
2016-04-11T12:01:24.825Z,23.12
2016-04-11T12:02:24.843Z,23.26
2016-04-11T12:03:24.845Z,23.45
2016-04-11T12:04:24.849Z,23.48
2016-04-11T12:05:24.852Z,23.67
2016-04-11T12:06:24.854Z,23.64
2016-04-11T12:07:24.872Z,23.77
2016-04-11T12:08:24.860Z,23.75
2016-04-11T12:09:24.877Z,23.77
2016-04-11T12:10:24.865Z,23.85
2016-04-11T12:11:24.883Z,23.9
2016-04-11T12:12:24.886Z,23.94
2016-04-11T12:13:24.904Z,23.94
2016-04-11T12:14:24.907Z,24.02
2016-04-11T12:15:24.909Z,24.12
2016-04-11T12:16:24.911Z,24.12
2016-04-11T12:17:24.947Z,24.11
2016-04-11T12:18:24.917Z,24.14
2016-04-11T12:19:24.920Z,24.09
2016-04-11T12:20:24.938Z,24.18
2016-04-11T12:21:24.941Z,24.21
2016-04-11T12:22:24.944Z,24.17
2016-04-11T12:23:24.947Z,24.17
2016-04-11T12:24:24.996Z,24.29
2016-04-11T12:25:24.968Z,24.3
2016-04-11T12:26:24.971Z,24.32
2016-04-11T12:27:24.988Z,24.27
2016-04-11T12:28:24.991Z,24.27
2016-04-11T12:29:24.993Z,24.33
2016-04-11T12:30:25.013Z,24.32
2016-04-11T12:31:25.015Z,24.33
2016-04-11T12:32:25.018Z,24.4
2016-04-11T12:33:25.020Z,24.55
2016-04-11T12:34:25.023Z,24.44
2016-04-11T12:35:25.041Z,24.52
2016-04-11T12:36:25.059Z,24.48
2016-04-11T12:37:25.031Z,24.51
2016-04-11T12:38:25.049Z,24.55
2016-04-11T12:39:25.099Z,24.61
2016-04-11T12:40:25.071Z,24.55
2016-04-11T12:41:25.073Z,24.64
2016-04-11T12:42:25.091Z,24.56
2016-04-11T12:43:25.078Z,24.66
2016-04-11T12:44:25.097Z,24.63
2016-04-11T12:45:25.084Z,24.66
2016-04-11T12:46:25.102Z,24.61
2016-04-11T12:47:25.120Z,24.67
2016-04-11T12:48:25.122Z,24.71
2016-04-11T12:49:25.126Z,24.75
2016-04-11T12:50:25.145Z,24.74
2016-04-11T12:51:25.147Z,24.74
2016-04-11T12:52:25.166Z,24.77
2016-04-11T12:53:25.152Z,24.78
2016-04-11T12:54:25.171Z,24.82